createdAt,value
2023-04-18T00:00:59.036Z,56.07
2023-04-18T00:02:04.180Z,55.99
2023-04-18T00:03:12.233Z,56.05
2023-04-18T00:04:16.475Z,56.53
2023-04-18T00:05:25.610Z,56.82
2023-04-18T00:06:32.532Z,56.61
2023-04-18T00:07:42.597Z,56.51
2023-04-18T00:08:50.346Z,56.54
2023-04-18T00:09:55.170Z,56.79
2023-04-18T00:11:01.819Z,56.73
2023-04-18T00:12:08.044Z,56.59
2023-04-18T00:13:16.492Z,56.36
2023-04-18T00:14:23.048Z,56.47
2023-04-18T00:15:26.325Z,56.46
2023-04-18T00:16:31.756Z,56.51
2023-04-18T00:17:38.596Z,56.51
2023-04-18T00:18:54.805Z,56.87
2023-04-18T00:20:00.204Z,56.92
2023-04-18T00:21:06.396Z,57.04
2023-04-18T00:22:14.559Z,57.01
2023-04-18T00:23:18.376Z,56.78
2023-04-18T00:24:20.991Z,56.80
2023-04-18T00:25:31.717Z,56.81
2023-04-18T00:27:42.483Z,56.88
2023-04-18T00:28:44.748Z,56.69
2023-04-18T00:29:47.444Z,56.78
2023-04-18T00:30:51.881Z,56.78
2023-04-18T00:31:54.491Z,56.72
2023-04-18T00:32:57.312Z,56.65
2023-04-18T00:33:59.992Z,56.72
2023-04-18T00:35:02.134Z,56.45
2023-04-18T00:36:06.186Z,56.77
2023-04-18T00:37:09.952Z,56.68
2023-04-18T00:38:12.512Z,56.75
2023-04-18T00:39:16.034Z,56.79
2023-04-18T00:40:18.539Z,56.84
2023-04-18T00:41:22.608Z,56.85
2023-04-18T00:42:24.905Z,56.99
2023-04-18T00:43:27.163Z,57.03
2023-04-18T00:44:30.749Z,56.84
2023-04-18T00:45:32.997Z,56.84
2023-04-18T00:46:35.313Z,56.81
2023-04-18T00:47:37.680Z,56.75
2023-04-18T00:48:40.432Z,56.44
2023-04-18T00:49:44.304Z,56.76
2023-04-18T00:50:46.766Z,56.81
2023-04-18T00:51:50.416Z,56.85
2023-04-18T00:52:54.306Z,56.99
2023-04-18T00:53:57.022Z,57.37
2023-04-18T00:54:59.688Z,56.76
2023-04-18T00:56:02.161Z,57.09
2023-04-18T00:57:06.635Z,57.24
2023-04-18T00:58:10.061Z,57.25
2023-04-18T00:59:12.961Z,57.06
2023-04-18T01:00:15.760Z,57.02
2023-04-18T01:01:18.073Z,56.52
2023-04-18T01:02:20.654Z,56.59
2023-04-18T01:03:23.215Z,56.61
2023-04-18T01:04:25.642Z,56.60
2023-04-18T01:05:28.175Z,56.77
2023-04-18T01:06:30.626Z,56.90
2023-04-18T01:07:36.492Z,56.93
2023-04-18T01:08:39.138Z,56.72
2023-04-18T01:09:41.275Z,56.93
2023-04-18T01:10:44.243Z,57.11
2023-04-18T01:11:46.568Z,56.98
2023-04-18T01:12:48.858Z,56.86
2023-04-18T01:14:05.540Z,56.88
2023-04-18T01:15:10.040Z,56.89
2023-04-18T01:16:13.080Z,57.16
2023-04-18T01:17:15.383Z,57.16
2023-04-18T01:18:19.317Z,57.00
2023-04-18T01:19:21.632Z,57.22
2023-04-18T01:20:24.992Z,57.14
2023-04-18T01:21:27.982Z,57.12
2023-04-18T01:22:31.660Z,57.04
2023-04-18T01:23:35.664Z,57.23
2023-04-18T01:24:38.002Z,57.34
2023-04-18T01:25:40.324Z,57.35
2023-04-18T01:26:44.611Z,57.39
2023-04-18T01:27:47.301Z,57.65
2023-04-18T01:28:49.611Z,57.51
2023-04-18T01:29:51.858Z,57.24
2023-04-18T01:30:54.030Z,57.39
2023-04-18T01:31:56.601Z,57.60
2023-04-18T01:34:09.469Z,57.36
2023-04-18T01:35:11.741Z,57.67
2023-04-18T01:36:14.183Z,57.72
2023-04-18T01:37:16.434Z,57.68
2023-04-18T01:38:18.601Z,57.88
2023-04-18T01:39:21.487Z,58.17
2023-04-18T01:40:24.497Z,58.66
2023-04-18T01:41:26.466Z,57.87
2023-04-18T01:42:29.519Z,57.99
2023-04-18T01:43:31.856Z,57.94
2023-04-18T01:44:34.296Z,57.96
2023-04-18T01:45:36.465Z,57.91
2023-04-18T01:46:39.668Z,57.90
2023-04-18T01:47:42.880Z,57.82
2023-04-18T01:48:48.042Z,57.85
2023-04-18T01:49:50.399Z,57.96
2023-04-18T01:50:53.204Z,58.29
2023-04-18T01:51:56.130Z,58.20
2023-04-18T01:52:59.437Z,58.44
2023-04-18T01:54:01.778Z,58.50
2023-04-18T01:55:04.553Z,58.31
2023-04-18T01:56:08.180Z,58.29
2023-04-18T01:57:10.335Z,58.23
2023-04-18T01:58:13.655Z,58.75
2023-04-18T01:59:15.789Z,58.54
2023-04-18T02:00:19.312Z,58.79
2023-04-18T02:01:21.416Z,58.67
2023-04-18T02:02:23.875Z,59.10
2023-04-18T02:03:27.902Z,59.02
2023-04-18T02:04:30.292Z,59.04
2023-04-18T02:05:32.590Z,58.71
2023-04-18T02:06:34.836Z,58.43
2023-04-18T02:07:37.501Z,58.34
2023-04-18T02:08:39.554Z,58.45
2023-04-18T02:09:41.833Z,58.55
2023-04-18T02:10:46.074Z,58.14
2023-04-18T02:11:48.836Z,58.71
2023-04-18T02:12:50.994Z,58.74
2023-04-18T02:13:53.131Z,59.04
2023-04-18T02:14:55.800Z,58.82
2023-04-18T02:15:58.055Z,58.58
2023-04-18T02:17:00.560Z,58.69
2023-04-18T02:18:03.281Z,58.39
2023-04-18T02:19:05.646Z,58.69
2023-04-18T02:20:08.812Z,58.70
2023-04-18T02:21:11.058Z,58.71
2023-04-18T02:22:13.205Z,58.79
2023-04-18T02:23:15.446Z,59.38
2023-04-18T02:24:17.886Z,59.15
2023-04-18T02:25:20.210Z,59.11
2023-04-18T02:26:23.443Z,58.81
2023-04-18T02:27:26.816Z,58.88
2023-04-18T02:28:30.826Z,58.89
2023-04-18T02:29:33.062Z,58.74
2023-04-18T02:30:35.715Z,58.73
2023-04-18T02:32:52.386Z,58.98
2023-04-18T02:33:56.614Z,59.23
2023-04-18T02:34:58.876Z,59.27
2023-04-18T02:36:01.158Z,59.17
2023-04-18T02:37:03.666Z,59.15
2023-04-18T02:38:07.335Z,59.06
2023-04-18T02:39:09.586Z,58.91
2023-04-18T02:40:12.865Z,58.74
2023-04-18T02:41:15.194Z,58.93
2023-04-18T02:42:17.916Z,59.09
2023-04-18T02:43:20.547Z,58.85
2023-04-18T02:44:23.207Z,59.16
2023-04-18T02:45:25.375Z,59.10
2023-04-18T02:46:27.729Z,58.92
2023-04-18T02:47:31.720Z,58.93
2023-04-18T02:48:34.549Z,59.10
2023-04-18T02:49:37.462Z,58.95
2023-04-18T02:50:39.602Z,58.91
2023-04-18T02:51:41.867Z,58.80
2023-04-18T02:52:44.262Z,58.95
2023-04-18T02:53:47.006Z,58.90
2023-04-18T02:54:49.382Z,58.93
2023-04-18T02:55:53.663Z,58.96
2023-04-18T02:56:57.070Z,58.98
2023-04-18T02:58:01.727Z,58.95
2023-04-18T02:59:22.618Z,59.00
2023-04-18T03:00:26.701Z,59.31
2023-04-18T03:01:47.171Z,59.11
2023-04-18T03:02:51.671Z,59.15
2023-04-18T03:03:55.739Z,58.74
2023-04-18T03:05:00.232Z,58.96
2023-04-18T03:06:02.856Z,59.10
2023-04-18T03:07:05.776Z,59.40
2023-04-18T03:08:09.982Z,59.37
2023-04-18T03:09:13.419Z,59.24
2023-04-18T03:10:17.570Z,59.47
2023-04-18T03:11:20.211Z,59.51
2023-04-18T03:12:23.101Z,59.56
2023-04-18T03:13:25.356Z,59.20
2023-04-18T03:14:29.834Z,59.34
2023-04-18T03:15:32.186Z,59.26
2023-04-18T03:16:34.405Z,59.24
2023-04-18T03:17:38.792Z,59.24
2023-04-18T03:18:41.113Z,59.15
2023-04-18T03:19:43.503Z,59.30
2023-04-18T03:20:48.136Z,59.10
2023-04-18T03:21:51.623Z,59.25
2023-04-18T03:22:53.901Z,59.42
2023-04-18T03:23:58.059Z,59.49
2023-04-18T03:25:00.201Z,59.38
2023-04-18T03:26:14.036Z,59.23
2023-04-18T03:27:17.107Z,59.23
2023-04-18T03:28:19.856Z,59.44
2023-04-18T03:29:22.098Z,59.28
2023-04-18T03:30:25.112Z,59.76
2023-04-18T03:31:29.675Z,59.68
2023-04-18T03:32:32.623Z,59.88
2023-04-18T03:33:34.928Z,59.65
2023-04-18T03:34:39.040Z,59.69
2023-04-18T03:35:42.947Z,59.92
2023-04-18T03:36:47.701Z,59.91
2023-04-18T03:37:49.331Z,59.94
2023-04-18T03:39:02.027Z,60.02
2023-04-18T03:40:05.322Z,59.86
2023-04-18T03:41:08.334Z,60.19
2023-04-18T03:42:12.426Z,60.04
2023-04-18T03:43:16.059Z,59.82
2023-04-18T03:44:18.316Z,60.01
2023-04-18T03:45:22.806Z,59.95
2023-04-18T03:46:25.525Z,59.99
2023-04-18T03:47:31.496Z,60.01
2023-04-18T03:48:34.292Z,60.04
2023-04-18T03:49:37.540Z,60.19
2023-04-18T03:50:40.054Z,60.27
2023-04-18T03:51:46.423Z,60.24
2023-04-18T03:52:49.468Z,59.92
2023-04-18T03:53:52.175Z,60.09
2023-04-18T03:54:54.481Z,60.14
2023-04-18T03:55:58.612Z,60.25
2023-04-18T03:57:02.689Z,60.14
2023-04-18T03:58:05.247Z,60.51
2023-04-18T03:59:07.604Z,60.18
2023-04-18T04:00:11.902Z,60.12
2023-04-18T04:01:22.088Z,60.39
2023-04-18T04:02:26.708Z,60.28
2023-04-18T04:03:29.243Z,60.27
2023-04-18T04:04:31.566Z,60.51
2023-04-18T04:05:34.261Z,60.38
2023-04-18T04:06:37.033Z,60.41
2023-04-18T04:07:40.344Z,60.45
2023-04-18T04:08:42.746Z,60.94
2023-04-18T04:09:45.894Z,60.67
2023-04-18T04:10:49.063Z,60.50
2023-04-18T04:11:52.168Z,60.34
2023-04-18T04:12:54.461Z,60.32
2023-04-18T04:13:57.018Z,60.41
2023-04-18T04:15:01.169Z,60.33
2023-04-18T04:16:05.149Z,60.41
2023-04-18T04:17:07.585Z,60.68
2023-04-18T04:18:11.413Z,60.63
2023-04-18T04:19:15.527Z,60.64
2023-04-18T04:20:22.224Z,60.74
2023-04-18T04:21:24.394Z,60.98
2023-04-18T04:22:28.568Z,60.87
2023-04-18T04:23:31.586Z,60.89
2023-04-18T04:24:33.755Z,60.63
2023-04-18T04:25:36.439Z,60.52
2023-04-18T04:26:40.546Z,60.63
2023-04-18T04:27:44.809Z,60.60
2023-04-18T04:28:47.658Z,60.40
2023-04-18T04:29:51.648Z,60.35
2023-04-18T04:30:54.694Z,60.18
2023-04-18T04:31:57.779Z,60.03
2023-04-18T04:33:02.069Z,59.90
2023-04-18T04:34:05.706Z,59.96
2023-04-18T04:35:08.573Z,60.09
2023-04-18T04:36:11.900Z,60.21
2023-04-18T04:37:15.314Z,60.35
2023-04-18T04:38:19.393Z,60.53
2023-04-18T04:39:22.907Z,60.71
2023-04-18T04:41:44.779Z,59.95
2023-04-18T04:42:47.377Z,60.13
2023-04-18T04:43:51.909Z,60.17
2023-04-18T04:44:56.063Z,59.96
2023-04-18T04:45:58.614Z,60.26
2023-04-18T04:47:00.770Z,60.30
2023-04-18T04:48:05.710Z,59.97
2023-04-18T04:49:07.866Z,60.18
2023-04-18T04:50:10.524Z,60.60
2023-04-18T04:51:13.325Z,60.02
2023-04-18T04:52:16.116Z,60.09
2023-04-18T04:53:18.662Z,60.04
2023-04-18T04:54:21.613Z,60.07
2023-04-18T04:55:23.925Z,59.97
2023-04-18T04:56:26.122Z,59.86
2023-04-18T04:57:28.957Z,59.86
2023-04-18T04:58:32.915Z,60.52
2023-04-18T04:59:42.911Z,60.53
2023-04-18T05:00:45.929Z,60.15
2023-04-18T05:01:48.881Z,59.65
2023-04-18T05:02:55.891Z,59.88
2023-04-18T05:03:59.055Z,59.90
2023-04-18T05:05:01.894Z,60.00
2023-04-18T05:06:04.674Z,59.91
2023-04-18T05:07:06.884Z,60.17
2023-04-18T05:08:09.370Z,60.18
2023-04-18T05:09:11.614Z,60.23
2023-04-18T05:10:13.996Z,60.53
2023-04-18T05:11:17.182Z,60.66
2023-04-18T05:12:19.308Z,60.48
2023-04-18T05:13:21.532Z,60.35
2023-04-18T05:14:23.579Z,60.32
2023-04-18T05:15:25.670Z,60.79
2023-04-18T05:16:27.889Z,60.77
2023-04-18T05:17:30.121Z,60.93
2023-04-18T05:18:35.025Z,61.03
2023-04-18T05:19:37.907Z,60.89
2023-04-18T05:20:40.371Z,60.91
2023-04-18T05:21:42.546Z,60.86
2023-04-18T05:22:45.749Z,60.75
2023-04-18T05:23:47.940Z,61.05
2023-04-18T05:24:50.013Z,61.05
2023-04-18T05:25:52.173Z,61.56
2023-04-18T05:26:54.983Z,61.53
2023-04-18T05:27:59.199Z,61.87
2023-04-18T05:29:01.554Z,61.87
2023-04-18T05:30:04.378Z,62.31
2023-04-18T05:31:06.577Z,62.23
2023-04-18T05:32:09.874Z,61.86
2023-04-18T05:33:12.084Z,61.52
2023-04-18T05:34:14.727Z,61.62
2023-04-18T05:35:17.172Z,62.12
2023-04-18T05:36:20.758Z,61.92
2023-04-18T05:37:22.864Z,62.33
2023-04-18T05:38:26.500Z,61.96
2023-04-18T05:39:28.650Z,61.96
2023-04-18T05:40:31.342Z,61.99
2023-04-18T05:41:33.491Z,61.97
2023-04-18T05:42:35.573Z,61.76
2023-04-18T05:43:37.753Z,61.89
2023-04-18T05:44:39.936Z,61.94
2023-04-18T05:45:42.123Z,61.58
2023-04-18T05:46:44.459Z,60.94
2023-04-18T05:47:46.762Z,60.74
2023-04-18T05:48:49.085Z,60.24
2023-04-18T05:49:51.262Z,60.11
2023-04-18T05:50:53.886Z,60.26
2023-04-18T05:51:56.047Z,59.89
2023-04-18T05:52:58.133Z,59.71
2023-04-18T05:54:00.758Z,60.11
2023-04-18T05:55:03.409Z,59.43
2023-04-18T05:56:06.493Z,59.37
2023-04-18T05:57:09.070Z,59.76
2023-04-18T05:58:12.285Z,59.91
2023-04-18T05:59:14.966Z,60.22
2023-04-18T06:00:17.662Z,59.60
2023-04-18T06:01:21.135Z,59.02
2023-04-18T06:02:23.351Z,58.98
2023-04-18T06:03:26.548Z,58.73
2023-04-18T06:04:30.118Z,58.52
2023-04-18T06:05:32.794Z,58.70
2023-04-18T06:06:35.417Z,59.30
2023-04-18T06:07:37.781Z,59.18
2023-04-18T06:08:40.580Z,59.05
2023-04-18T06:09:43.761Z,59.13
2023-04-18T06:10:46.034Z,58.89
2023-04-18T06:11:48.071Z,59.08
2023-04-18T06:12:50.040Z,58.93
2023-04-18T06:13:52.733Z,58.55
2023-04-18T06:14:55.690Z,58.73
2023-04-18T06:15:57.924Z,58.77
2023-04-18T06:17:00.622Z,59.06
2023-04-18T06:18:02.862Z,59.48
2023-04-18T06:19:05.233Z,59.12
2023-04-18T06:20:09.066Z,59.51
2023-04-18T06:21:12.104Z,59.47
2023-04-18T06:22:14.396Z,58.67
2023-04-18T06:23:16.913Z,58.99
2023-04-18T06:24:19.592Z,58.89
2023-04-18T06:25:22.146Z,58.34
2023-04-18T06:26:24.831Z,57.56
2023-04-18T06:27:31.543Z,56.88
2023-04-18T06:28:32.108Z,56.35
2023-04-18T06:29:35.523Z,56.34
2023-04-18T06:30:38.455Z,56.41
2023-04-18T06:31:40.612Z,56.59
2023-04-18T06:32:42.760Z,57.16
2023-04-18T06:33:45.173Z,57.18
2023-04-18T06:34:47.360Z,56.65
2023-04-18T06:35:49.997Z,56.63
2023-04-18T06:36:52.272Z,56.44
2023-04-18T06:37:54.903Z,56.58
2023-04-18T06:38:57.248Z,56.35
2023-04-18T06:40:00.055Z,56.19
2023-04-18T06:41:03.145Z,56.54
2023-04-18T06:42:05.837Z,56.12
2023-04-18T06:43:08.335Z,56.28
2023-04-18T06:44:10.989Z,56.15
2023-04-18T06:45:13.677Z,55.53
2023-04-18T06:46:16.585Z,55.27
2023-04-18T06:47:19.879Z,55.40
2023-04-18T06:48:22.293Z,56.13
2023-04-18T06:49:26.477Z,56.30
2023-04-18T06:50:29.526Z,56.57
2023-04-18T06:51:32.234Z,56.06
2023-04-18T06:52:34.381Z,56.49
2023-04-18T06:53:36.411Z,57.18
2023-04-18T06:54:38.610Z,57.53
2023-04-18T06:55:40.847Z,57.32
2023-04-18T06:56:43.083Z,57.33
2023-04-18T06:57:45.692Z,56.70
2023-04-18T06:58:48.872Z,57.19
2023-04-18T06:59:51.071Z,57.07
2023-04-18T07:00:53.268Z,57.39
2023-04-18T07:01:55.314Z,57.72
2023-04-18T07:02:58.176Z,57.41
2023-04-18T07:04:00.531Z,57.40
2023-04-18T07:05:02.883Z,57.39
2023-04-18T07:06:05.916Z,58.35
2023-04-18T07:07:09.045Z,57.76
2023-04-18T07:08:11.835Z,57.18
2023-04-18T07:09:14.006Z,56.66
2023-04-18T07:10:16.065Z,56.70
2023-04-18T07:11:18.276Z,57.07
2023-04-18T07:12:20.540Z,56.96
2023-04-18T07:13:23.070Z,56.55
2023-04-18T07:14:25.236Z,56.36
2023-04-18T07:15:27.411Z,57.16
2023-04-18T07:16:30.543Z,56.24
2023-04-18T07:17:33.068Z,56.29
2023-04-18T07:18:38.343Z,56.38
2023-04-18T07:19:40.493Z,55.71
2023-04-18T07:20:42.716Z,56.34
2023-04-18T07:21:45.272Z,56.41
2023-04-18T07:22:49.407Z,57.04
2023-04-18T07:23:52.177Z,57.35
2023-04-18T07:24:54.292Z,56.34
2023-04-18T07:25:56.393Z,56.01
2023-04-18T07:26:58.613Z,56.82
2023-04-18T07:28:00.911Z,56.66
2023-04-18T07:29:03.172Z,56.00
2023-04-18T07:30:06.783Z,55.48
2023-04-18T07:31:09.049Z,56.17
2023-04-18T07:32:12.362Z,56.56
2023-04-18T07:33:14.601Z,56.90
2023-04-18T07:34:17.158Z,56.31
2023-04-18T07:35:19.318Z,55.80
2023-04-18T07:36:22.013Z,55.26
2023-04-18T07:37:24.970Z,55.59
2023-04-18T07:38:27.629Z,55.23
2023-04-18T07:39:29.792Z,55.36
2023-04-18T07:40:32.384Z,56.07
2023-04-18T07:41:35.548Z,55.68
2023-04-18T07:42:37.680Z,56.10
2023-04-18T07:43:39.956Z,56.07
2023-04-18T07:44:42.819Z,55.84
2023-04-18T07:45:45.039Z,55.19
2023-04-18T07:46:47.643Z,55.79
2023-04-18T07:47:49.996Z,55.91
2023-04-18T07:48:53.121Z,56.43
2023-04-18T07:49:55.297Z,55.49
2023-04-18T07:50:57.920Z,56.55
2023-04-18T07:51:59.983Z,56.98
2023-04-18T07:53:01.972Z,56.92
2023-04-18T07:54:05.229Z,56.53
2023-04-18T07:55:07.980Z,56.18
2023-04-18T07:56:11.448Z,56.16
2023-04-18T07:57:14.084Z,55.85
2023-04-18T07:58:16.593Z,55.25
2023-04-18T07:59:19.176Z,56.28
2023-04-18T08:00:21.429Z,55.88
2023-04-18T08:01:23.481Z,55.55
2023-04-18T08:02:25.820Z,54.79
2023-04-18T08:03:28.430Z,55.23
2023-04-18T08:04:30.959Z,55.13
2023-04-18T08:05:33.373Z,55.02
2023-04-18T08:06:36.017Z,55.93
2023-04-18T08:07:38.744Z,55.03
2023-04-18T08:08:40.928Z,55.33
2023-04-18T08:09:43.106Z,54.69
2023-04-18T08:10:45.295Z,53.62
2023-04-18T08:11:47.454Z,54.15
2023-04-18T08:12:50.131Z,53.98
2023-04-18T08:13:52.298Z,54.15
2023-04-18T08:14:54.466Z,54.94
2023-04-18T08:15:56.566Z,54.89
2023-04-18T08:16:58.792Z,54.56
2023-04-18T08:18:01.289Z,54.67
2023-04-18T08:19:03.414Z,55.19
2023-04-18T08:20:06.616Z,55.33
2023-04-18T08:21:08.931Z,55.08
2023-04-18T08:22:11.293Z,55.14
2023-04-18T08:23:13.804Z,55.12
2023-04-18T08:24:16.384Z,55.19
2023-04-18T08:25:18.572Z,55.58
2023-04-18T08:26:21.748Z,55.86
2023-04-18T08:27:24.473Z,55.22
2023-04-18T08:28:26.709Z,55.15
2023-04-18T08:29:29.092Z,55.20
2023-04-18T08:30:31.293Z,54.90
2023-04-18T08:31:34.556Z,54.76
2023-04-18T08:32:37.332Z,55.61
2023-04-18T08:33:40.025Z,55.41
2023-04-18T08:34:42.133Z,55.52
2023-04-18T08:35:44.197Z,54.92
2023-04-18T08:36:46.349Z,54.28
2023-04-18T08:37:48.627Z,54.96
2023-04-18T08:38:50.705Z,54.66
2023-04-18T08:39:53.037Z,54.25
2023-04-18T08:40:55.176Z,53.93
2023-04-18T08:41:59.098Z,54.36
2023-04-18T08:43:03.231Z,54.91
2023-04-18T08:44:06.264Z,55.37
2023-04-18T08:45:09.368Z,55.37
2023-04-18T08:46:11.790Z,54.96
2023-04-18T08:47:14.244Z,54.65
2023-04-18T08:48:17.077Z,55.15
2023-04-18T08:49:19.905Z,55.21
2023-04-18T08:50:22.167Z,54.77
2023-04-18T08:51:24.383Z,54.82
2023-04-18T08:52:28.120Z,53.71
2023-04-18T08:53:32.927Z,53.36
2023-04-18T08:54:36.748Z,53.24
2023-04-18T08:55:39.143Z,53.96
2023-04-18T08:56:41.311Z,53.31
2023-04-18T08:57:44.639Z,54.09
2023-04-18T08:58:47.751Z,54.27
2023-04-18T08:59:51.110Z,55.10
2023-04-18T09:00:54.605Z,55.32
2023-04-18T09:01:57.212Z,55.16
2023-04-18T09:02:59.568Z,52.06
2023-04-18T09:04:01.846Z,52.08
2023-04-18T09:05:19.162Z,51.64
2023-04-18T09:06:21.221Z,53.23
2023-04-18T09:07:29.650Z,52.60
2023-04-18T09:08:31.880Z,51.94
2023-04-18T09:09:43.405Z,51.56
2023-04-18T09:10:46.835Z,50.12
2023-04-18T09:11:49.632Z,50.76
2023-04-18T09:12:51.786Z,50.62
2023-04-18T09:13:55.255Z,50.62
2023-04-18T09:15:09.541Z,50.96
2023-04-18T09:16:12.057Z,51.03
2023-04-18T09:17:16.428Z,51.64
2023-04-18T09:18:18.541Z,52.33
2023-04-18T09:19:20.792Z,52.97
2023-04-18T09:20:35.325Z,51.98
2023-04-18T09:21:41.353Z,52.32
2023-04-18T09:24:21.664Z,49.45
2023-04-18T09:26:41.534Z,49.93
2023-04-18T09:27:43.752Z,50.46
2023-04-18T09:28:49.845Z,49.91
2023-04-18T09:29:53.797Z,49.50
2023-04-18T09:32:09.699Z,49.58
2023-04-18T09:33:11.846Z,50.35
2023-04-18T09:34:21.540Z,50.00
2023-04-18T09:35:24.766Z,50.21
2023-04-18T09:36:27.649Z,50.74
2023-04-18T09:37:30.198Z,50.98
2023-04-18T09:38:41.109Z,51.34
2023-04-18T09:39:44.726Z,51.88
2023-04-18T09:40:51.354Z,52.18
2023-04-18T09:42:00.161Z,53.50
2023-04-18T09:43:18.011Z,53.10
2023-04-18T09:44:20.622Z,52.55
2023-04-18T09:45:23.943Z,52.03
2023-04-18T09:46:28.349Z,52.82
2023-04-18T09:47:32.276Z,51.25
2023-04-18T09:48:34.959Z,51.84
2023-04-18T09:49:37.159Z,52.84
2023-04-18T09:50:41.061Z,53.01
2023-04-18T09:51:45.457Z,52.63
2023-04-18T09:52:48.077Z,52.54
2023-04-18T09:53:50.945Z,52.74
2023-04-18T09:54:58.252Z,52.12
2023-04-18T09:56:02.583Z,52.63
2023-04-18T09:57:08.332Z,51.65
2023-04-18T09:58:12.027Z,51.78
2023-04-18T09:59:20.532Z,52.12
2023-04-18T10:00:28.305Z,51.54
2023-04-18T10:01:31.067Z,51.80
2023-04-18T10:02:41.265Z,51.14
2023-04-18T10:03:50.058Z,50.69
2023-04-18T10:04:55.766Z,50.27
2023-04-18T10:06:00.778Z,51.50
2023-04-18T10:07:03.119Z,52.11
2023-04-18T10:08:07.266Z,51.99
2023-04-18T10:09:09.474Z,51.83
2023-04-18T10:10:14.387Z,51.75
2023-04-18T10:11:18.661Z,51.43
2023-04-18T10:12:23.830Z,50.79
2023-04-18T10:13:28.342Z,50.75
2023-04-18T10:14:33.136Z,50.06
2023-04-18T10:15:41.210Z,50.28
2023-04-18T10:16:48.512Z,50.15
2023-04-18T10:19:28.821Z,48.71
2023-04-18T10:20:35.258Z,48.61
2023-04-18T10:21:46.284Z,48.74
2023-04-18T10:22:49.488Z,48.45
2023-04-18T10:23:51.732Z,48.13
2023-04-18T10:24:55.020Z,48.86
2023-04-18T10:25:58.716Z,49.93
2023-04-18T10:27:01.040Z,50.37
2023-04-18T10:28:04.821Z,50.38
2023-04-18T10:29:07.347Z,49.73
2023-04-18T10:30:11.048Z,50.48
2023-04-18T10:31:15.987Z,51.04
2023-04-18T10:32:20.916Z,50.28
2023-04-18T10:33:33.401Z,50.56
2023-04-18T10:34:37.610Z,49.86
2023-04-18T10:35:44.478Z,49.85
2023-04-18T10:37:06.183Z,49.88
2023-04-18T10:38:11.958Z,49.43
2023-04-18T10:39:22.474Z,50.32
2023-04-18T10:40:35.309Z,49.58
2023-04-18T10:41:42.061Z,49.99
2023-04-18T10:42:53.597Z,49.23
2023-04-18T10:44:16.273Z,49.53
2023-04-18T10:45:20.251Z,49.83
2023-04-18T10:46:31.825Z,49.85
2023-04-18T10:47:27.238Z,50.11
2023-04-18T10:48:30.136Z,50.57
2023-04-18T10:49:35.183Z,51.85
2023-04-18T10:51:51.953Z,50.06
2023-04-18T10:52:55.187Z,50.66
2023-04-18T10:54:00.293Z,51.20
2023-04-18T10:55:12.335Z,51.14
2023-04-18T10:56:15.830Z,51.75
2023-04-18T10:57:18.086Z,51.88
2023-04-18T10:58:21.139Z,52.11
2023-04-18T10:59:23.843Z,51.88
2023-04-18T11:00:27.321Z,51.17
2023-04-18T11:01:32.630Z,50.33
2023-04-18T11:02:35.545Z,50.51
2023-04-18T11:03:38.528Z,49.53
2023-04-18T11:04:41.796Z,49.78
2023-04-18T11:05:44.013Z,49.94
2023-04-18T11:06:51.939Z,49.95
2023-04-18T11:07:54.614Z,49.51
2023-04-18T11:09:13.988Z,50.38
2023-04-18T11:10:19.161Z,50.57
2023-04-18T11:11:21.862Z,50.36
2023-04-18T11:12:24.208Z,50.97
2023-04-18T11:13:27.476Z,51.09
2023-04-18T11:14:45.108Z,50.70
2023-04-18T11:15:47.306Z,50.63
2023-04-18T11:16:49.939Z,50.53
2023-04-18T11:18:00.021Z,50.27
2023-04-18T11:20:32.227Z,50.40
2023-04-18T11:21:34.466Z,50.59
2023-04-18T11:22:45.282Z,50.69
2023-04-18T11:23:47.473Z,50.28
2023-04-18T11:24:50.913Z,50.10
2023-04-18T11:25:54.443Z,50.18
2023-04-18T11:26:56.731Z,50.47
2023-04-18T11:28:00.512Z,50.14
2023-04-18T11:29:02.861Z,50.11
2023-04-18T11:30:07.461Z,50.99
2023-04-18T11:31:10.734Z,51.31
2023-04-18T11:32:12.909Z,50.20
2023-04-18T11:33:15.734Z,50.23
2023-04-18T11:34:18.443Z,50.12
2023-04-18T11:35:20.729Z,50.70
2023-04-18T11:36:23.328Z,50.77
2023-04-18T11:37:25.514Z,50.84
2023-04-18T11:38:29.355Z,50.82
2023-04-18T11:39:34.467Z,51.05
2023-04-18T11:40:37.833Z,51.72
2023-04-18T11:41:40.861Z,51.82
2023-04-18T11:42:43.583Z,52.13
2023-04-18T11:43:46.029Z,52.13
2023-04-18T11:44:48.185Z,51.40
2023-04-18T11:45:58.080Z,51.49
2023-04-18T11:47:00.770Z,51.69
2023-04-18T11:48:04.000Z,51.90
2023-04-18T11:49:06.289Z,51.13
2023-04-18T11:50:11.323Z,50.61
2023-04-18T11:52:43.550Z,50.61
2023-04-18T11:53:46.313Z,50.50
2023-04-18T11:54:48.998Z,50.73
2023-04-18T11:55:55.112Z,51.25
2023-04-18T11:56:57.764Z,50.99
2023-04-18T11:58:01.188Z,51.35
2023-04-18T11:59:09.457Z,50.99
2023-04-18T12:00:13.259Z,50.59
2023-04-18T12:02:49.845Z,50.12
2023-04-18T12:05:14.615Z,50.49
2023-04-18T12:06:17.614Z,50.54
2023-04-18T12:07:43.808Z,50.71
2023-04-18T12:08:46.059Z,51.06
2023-04-18T12:09:51.598Z,51.08
2023-04-18T12:10:54.451Z,51.14
2023-04-18T12:11:59.677Z,50.93
2023-04-18T12:13:06.952Z,50.99
2023-04-18T12:15:29.858Z,51.75
2023-04-18T12:16:33.264Z,52.17
2023-04-18T12:17:36.681Z,53.04
2023-04-18T12:18:38.861Z,53.74
2023-04-18T12:19:44.422Z,53.80
2023-04-18T12:20:51.638Z,54.84
2023-04-18T12:21:59.478Z,54.83
2023-04-18T12:23:01.870Z,54.01
2023-04-18T12:24:14.740Z,54.09
2023-04-18T12:25:25.255Z,55.06
2023-04-18T12:26:28.690Z,54.96
2023-04-18T12:27:48.334Z,55.26
2023-04-18T12:28:51.458Z,55.52
2023-04-18T12:29:53.688Z,57.18
2023-04-18T12:30:56.332Z,58.64
2023-04-18T12:31:58.622Z,58.93
2023-04-18T12:33:03.863Z,58.76
2023-04-18T12:34:06.648Z,59.26
2023-04-18T12:35:09.018Z,58.75
2023-04-18T12:36:11.870Z,57.17
2023-04-18T12:37:14.040Z,57.20
2023-04-18T12:38:21.571Z,57.94
2023-04-18T12:39:24.697Z,58.66
2023-04-18T12:40:28.485Z,59.13
2023-04-18T12:41:30.711Z,58.59
2023-04-18T12:42:32.912Z,59.55
2023-04-18T12:43:35.488Z,59.58
2023-04-18T12:44:37.846Z,60.36
2023-04-18T12:45:40.306Z,60.78
2023-04-18T12:46:43.677Z,60.46
2023-04-18T12:47:48.268Z,60.73
2023-04-18T12:48:50.812Z,61.43
2023-04-18T12:49:53.084Z,61.11
2023-04-18T12:50:55.377Z,60.90
2023-04-18T12:51:58.110Z,61.93
2023-04-18T12:53:01.456Z,62.38
2023-04-18T12:54:03.882Z,62.71
2023-04-18T12:55:06.954Z,63.64
2023-04-18T12:56:09.239Z,63.14
2023-04-18T12:57:12.105Z,63.22
2023-04-18T12:58:14.770Z,63.14
2023-04-18T12:59:18.167Z,63.29
2023-04-18T13:00:22.473Z,62.57
2023-04-18T13:01:25.455Z,62.20
2023-04-18T13:02:28.008Z,62.40
2023-04-18T13:03:30.691Z,63.14
2023-04-18T13:04:33.780Z,63.31
2023-04-18T13:05:37.351Z,62.96
2023-04-18T13:06:39.893Z,62.44
2023-04-18T13:07:43.179Z,62.03
2023-04-18T13:08:46.346Z,62.44
2023-04-18T13:09:48.665Z,62.01
2023-04-18T13:10:50.954Z,61.86
2023-04-18T13:11:53.558Z,61.73
2023-04-18T13:12:56.103Z,62.31
2023-04-18T13:13:58.138Z,62.99
2023-04-18T13:15:00.205Z,63.39
2023-04-18T13:16:03.350Z,64.53
2023-04-18T13:17:05.693Z,64.36
2023-04-18T13:18:08.883Z,63.85
2023-04-18T13:19:11.628Z,64.44
2023-04-18T13:20:15.317Z,64.04
2023-04-18T13:21:17.471Z,62.70
2023-04-18T13:22:19.963Z,61.84
2023-04-18T13:23:22.163Z,61.97
2023-04-18T13:24:24.338Z,61.83
2023-04-18T13:25:26.905Z,62.12
2023-04-18T13:26:29.373Z,62.21
2023-04-18T13:27:31.944Z,61.95
2023-04-18T13:28:34.491Z,62.22
2023-04-18T13:30:47.774Z,62.19
2023-04-18T13:31:50.109Z,61.63
2023-04-18T13:32:52.470Z,61.52
2023-04-18T13:33:54.941Z,61.28
2023-04-18T13:34:57.000Z,62.05
2023-04-18T13:35:59.163Z,62.39
2023-04-18T13:37:01.817Z,62.65
2023-04-18T13:38:03.890Z,62.62
2023-04-18T13:39:06.133Z,62.69
2023-04-18T13:40:09.310Z,63.30
2023-04-18T13:41:13.454Z,62.81
2023-04-18T13:42:16.471Z,63.07
2023-04-18T13:43:19.078Z,62.90
2023-04-18T13:44:21.293Z,63.17
2023-04-18T13:45:23.440Z,63.17
2023-04-18T13:46:26.300Z,62.95
2023-04-18T13:47:29.437Z,63.37
2023-04-18T13:48:31.621Z,63.15
2023-04-18T13:49:35.030Z,63.16
2023-04-18T13:50:37.253Z,62.62
2023-04-18T13:51:39.443Z,62.78
2023-04-18T13:52:41.582Z,63.23
2023-04-18T13:53:43.845Z,63.41
2023-04-18T13:54:46.578Z,63.80
2023-04-18T13:55:49.139Z,63.69
2023-04-18T13:56:54.222Z,63.37
2023-04-18T13:57:57.027Z,63.56
2023-04-18T13:58:59.171Z,63.51
2023-04-18T14:00:01.435Z,63.44